Time;durP1;ratioP1;P1;durP2;ratioP2;P2;SDS_P1;SDS_P2;PMS_P1;PMS_P2;Temp;Humidity;BMP_temperature;BMP_pressure;BME280_temperature;BME280_humidity;BME280_pressure;Samples;Min_cycle;Max_cycle;Signal;HPM_P1;HPM_P2
2021/04/08 00:01:57;;;;;;;8.13;4.70;;;3.20;99.90;;;;;;5014027;28;20438;-84
2021/04/08 00:04:23;;;;;;;5.60;4.40;;;3.00;99.90;;;;;;5013172;28;20034;-83
2021/04/08 00:06:49;;;;;;;7.20;4.88;;;2.90;99.90;;;;;;4995569;28;20141;-84
2021/04/08 00:09:14;;;;;;;6.43;3.95;;;2.90;99.90;;;;;;4996293;28;20477;-84
2021/04/08 00:11:40;;;;;;;7.60;4.90;;;2.90;99.90;;;;;;5000329;28;20529;-84
2021/04/08 00:14:05;;;;;;;6.32;4.15;;;2.80;99.90;;;;;;5008724;28;20026;-84
2021/04/08 00:16:31;;;;;;;6.88;4.50;;;2.80;99.90;;;;;;5013889;28;20026;-84
2021/04/08 00:18:56;;;;;;;8.13;4.90;;;2.80;99.90;;;;;;4996360;28;20041;-84
2021/04/08 00:21:22;;;;;;;8.27;5.60;;;2.90;99.90;;;;;;5011900;28;20022;-84
2021/04/08 00:23:48;;;;;;;7.07;4.90;;;3.00;99.90;;;;;;5013940;28;20087;-84
2021/04/08 00:26:13;;;;;;;9.48;5.53;;;3.00;99.90;;;;;;4996103;28;20386;-84
2021/04/08 00:28:39;;;;;;;7.93;5.50;;;3.10;99.90;;;;;;4996083;28;20058;-84
2021/04/08 00:31:05;;;;;;;9.10;5.20;;;3.10;99.90;;;;;;5013059;28;20398;-84
2021/04/08 00:33:30;;;;;;;8.70;4.93;;;3.10;99.90;;;;;;5012945;28;20547;-84
2021/04/08 00:35:56;;;;;;;8.00;4.53;;;3.00;99.90;;;;;;5012053;28;20421;-84
2021/04/08 00:38:21;;;;;;;7.25;4.72;;;3.00;99.90;;;;;;4995299;28;20598;-84
2021/04/08 00:40:47;;;;;;;8.15;4.65;;;2.90;99.90;;;;;;5013304;28;20018;-83
2021/04/08 00:43:13;;;;;;;7.53;4.60;;;3.40;99.90;;;;;;5012629;28;20400;-84
2021/04/08 00:45:39;;;;;;;8.77;5.10;;;2.70;99.90;;;;;;5013418;28;20030;-83
2021/04/08 00:48:05;;;;;;;8.52;4.20;;;2.60;99.90;;;;;;5013003;28;20109;-84
2021/04/08 00:50:31;;;;;;;7.20;4.18;;;2.60;99.90;;;;;;5011044;28;20026;-83
2021/04/08 00:53:06;;;;;;;6.65;4.22;;;2.50;99.90;;;;;;5012470;28;20030;-83
2021/04/08 00:55:38;;;;;;;6.88;4.50;;;2.40;99.90;;;;;;4985736;28;20033;-83
2021/04/08 00:58:05;;;;;;;6.43;4.38;;;2.30;99.90;;;;;;5012563;28;20459;-84
2021/04/08 01:00:35;;;;;;;7.00;4.03;;;2.40;99.90;;;;;;5012510;28;20025;-83
2021/04/08 01:03:02;;;;;;;5.18;3.67;;;2.30;99.90;;;;;;5012695;28;20046;-84
2021/04/08 01:05:28;;;;;;;5.05;3.80;;;2.30;99.90;;;;;;5011015;28;20512;-84
2021/04/08 01:07:54;;;;;;;7.30;4.30;;;2.40;99.90;;;;;;4995652;28;20029;-84
2021/04/08 01:10:23;;;;;;;8.32;4.80;;;2.40;99.90;;;;;;5012716;28;20022;-84
2021/04/08 01:12:55;;;;;;;7.53;4.10;;;2.30;99.90;;;;;;4994714;28;20072;-84
2021/04/08 01:15:22;;;;;;;6.97;4.18;;;2.30;99.90;;;;;;5012627;28;20040;-83
2021/04/08 01:18:02;;;;;;;7.90;4.63;;;2.30;99.90;;;;;;5012401;28;20397;-83
2021/04/08 01:20:43;;;;;;;6.80;4.47;;;2.40;99.90;;;;;;5012144;28;20100;-84
2021/04/08 01:23:20;;;;;;;5.97;4.57;;;2.40;99.90;;;;;;4993268;28;20402;-84
2021/04/08 01:26:14;;;;;;;10.40;4.65;;;2.40;99.90;;;;;;5011930;28;20026;-83
2021/04/08 01:28:43;;;;;;;8.07;4.45;;;2.30;99.90;;;;;;5012445;28;20032;-83
2021/04/08 01:31:16;;;;;;;9.02;5.03;;;2.30;99.90;;;;;;5012253;28;20014;-84
2021/04/08 01:33:48;;;;;;;9.27;4.35;;;2.30;99.90;;;;;;5005867;28;20121;-83
2021/04/08 01:36:20;;;;;;;5.20;3.80;;;2.20;99.90;;;;;;4994850;28;20401;-83
2021/04/08 01:39:06;;;;;;;8.45;5.30;;;2.20;99.90;;;;;;4985090;28;20025;-83
2021/04/08 01:41:41;;;;;;;5.63;4.40;;;2.20;99.90;;;;;;5011968;28;20026;-83
2021/04/08 01:44:11;;;;;;;6.55;4.47;;;2.20;99.90;;;;;;4989461;28;20032;-83
2021/04/08 01:46:39;;;;;;;7.43;4.43;;;2.10;99.90;;;;;;4994699;28;20040;-83
2021/04/08 01:49:05;;;;;;;8.63;5.10;;;2.00;99.90;;;;;;4993821;28;20553;-83
2021/04/08 01:51:33;;;;;;;7.95;5.10;;;1.90;99.90;;;;;;5012248;28;20026;-84
2021/04/08 01:54:02;;;;;;;8.32;5.40;;;2.00;99.90;;;;;;5012720;28;20501;-83
2021/04/08 01:56:32;;;;;;;8.25;5.05;;;2.20;99.90;;;;;;5012333;28;20112;-84
2021/04/08 01:58:59;;;;;;;7.22;4.88;;;2.10;99.90;;;;;;5012334;28;20034;-83
2021/04/08 02:01:26;;;;;;;6.90;4.50;;;2.00;99.90;;;;;;5011934;28;20105;-84
2021/04/08 02:03:52;;;;;;;6.53;4.45;;;1.80;99.90;;;;;;5010614;28;20062;-84
2021/04/08 02:06:21;;;;;;;6.82;4.45;;;1.90;99.90;;;;;;5012095;28;20513;-83
2021/04/08 02:08:49;;;;;;;7.13;4.75;;;1.70;99.90;;;;;;4994396;28;20119;-82
2021/04/08 02:11:16;;;;;;;6.60;4.28;;;1.80;99.90;;;;;;5012438;28;20026;-83
2021/04/08 02:13:45;;;;;;;7.97;4.88;;;1.80;99.90;;;;;;5011895;28;20486;-83
2021/04/08 02:16:13;;;;;;;8.88;4.78;;;1.90;99.90;;;;;;5012340;28;20100;-83
2021/04/08 02:18:40;;;;;;;7.90;4.90;;;1.90;99.90;;;;;;5011079;28;20494;-84
2021/04/08 02:21:07;;;;;;;8.15;4.55;;;1.80;99.90;;;;;;5013576;28;20022;-84
2021/04/08 02:23:38;;;;;;;7.97;5.00;;;1.60;99.90;;;;;;4997450;28;20057;-83
2021/04/08 02:26:04;;;;;;;9.60;5.50;;;1.50;99.90;;;;;;5016171;28;20028;-83
2021/04/08 02:28:32;;;;;;;9.68;4.95;;;1.50;99.90;;;;;;5015631;28;20088;-83
2021/04/08 02:30:59;;;;;;;7.65;4.82;;;1.60;99.90;;;;;;4998004;28;20037;-83
2021/04/08 02:33:27;;;;;;;10.00;5.18;;;1.60;99.90;;;;;;4996434;28;20038;-83
2021/04/08 02:35:54;;;;;;;9.43;5.22;;;1.50;99.90;;;;;;4997531;28;20026;-83
2021/04/08 02:38:22;;;;;;;8.35;5.15;;;1.60;99.90;;;;;;4997499;28;20117;-83
2021/04/08 02:40:48;;;;;;;5.63;4.22;;;1.50;99.90;;;;;;5015548;28;20100;-83
2021/04/08 02:43:14;;;;;;;9.18;4.88;;;1.30;99.90;;;;;;4998264;28;20018;-83
2021/04/08 02:45:40;;;;;;;6.93;4.20;;;1.10;99.90;;;;;;4997654;28;20385;-83
2021/04/08 02:48:10;;;;;;;7.72;4.30;;;1.00;99.90;;;;;;5014801;28;20080;-83
2021/04/08 02:50:37;;;;;;;6.40;3.90;;;1.00;99.90;;;;;;5015269;28;20021;-84
2021/04/08 02:53:25;;;;;;;8.40;4.65;;;1.00;99.90;;;;;;5014905;28;20022;-83
2021/04/08 02:56:24;;;;;;;7.72;4.25;;;1.10;99.90;;;;;;5015513;28;20054;-83
2021/04/08 02:58:53;;;;;;;6.38;3.97;;;1.10;99.90;;;;;;4970005;28;20039;-83
2021/04/08 03:01:22;;;;;;;6.00;4.13;;;1.10;99.90;;;;;;4963818;28;20062;-83
2021/04/08 03:03:53;;;;;;;7.57;4.13;;;1.20;99.90;;;;;;4973279;28;20055;-83
2021/04/08 03:06:20;;;;;;;6.75;4.00;;;1.20;99.90;;;;;;4954870;28;20498;-83
2021/04/08 03:08:50;;;;;;;5.60;3.70;;;1.20;99.90;;;;;;4962904;28;20118;-83
2021/04/08 03:11:22;;;;;;;6.07;3.80;;;1.30;99.90;;;;;;4971140;28;20584;-83
2021/04/08 03:13:50;;;;;;;6.53;3.90;;;1.30;99.90;;;;;;4971179;28;20043;-83
2021/04/08 03:16:23;;;;;;;6.53;3.58;;;1.30;99.90;;;;;;4969814;28;20178;-83
2021/04/08 03:18:52;;;;;;;5.47;3.20;;;1.20;99.90;;;;;;4970936;28;20110;-83
2021/04/08 03:21:18;;;;;;;5.85;3.42;;;1.20;99.90;;;;;;4971097;28;20494;-83
2021/04/08 03:23:45;;;;;;;5.10;3.65;;;1.20;99.90;;;;;;4970882;28;20035;-83
2021/04/08 03:26:12;;;;;;;6.65;3.90;;;1.10;99.90;;;;;;4954649;28;20125;-83
2021/04/08 03:28:39;;;;;;;6.65;3.60;;;1.10;99.90;;;;;;4971030;28;20662;-83
2021/04/08 03:31:06;;;;;;;6.35;3.33;;;1.10;99.90;;;;;;4969586;28;20047;-83
2021/04/08 03:33:33;;;;;;;7.03;3.20;;;1.00;99.90;;;;;;4969986;28;20031;-83
2021/04/08 03:36:00;;;;;;;6.28;3.50;;;0.90;99.90;;;;;;4979052;28;20498;-83
2021/04/08 03:38:27;;;;;;;5.90;3.60;;;1.00;99.90;;;;;;4994103;28;20575;-84
2021/04/08 03:40:56;;;;;;;5.00;3.28;;;1.00;99.90;;;;;;4994490;28;20501;-83
2021/04/08 03:43:22;;;;;;;8.05;3.58;;;0.90;99.90;;;;;;4994685;28;20022;-83
2021/04/08 03:45:48;;;;;;;6.22;3.78;;;0.80;99.90;;;;;;5009612;28;20026;-83
2021/04/08 03:48:15;;;;;;;5.97;3.58;;;0.90;99.90;;;;;;5012028;28;20072;-83
2021/04/08 03:50:42;;;;;;;8.05;3.78;;;0.90;99.90;;;;;;5011460;28;20022;-83
2021/04/08 03:53:09;;;;;;;6.95;3.85;;;0.70;99.90;;;;;;5012211;28;20598;-83
2021/04/08 03:55:36;;;;;;;6.55;3.90;;;0.70;99.90;;;;;;5011743;28;20109;-83
2021/04/08 03:58:06;;;;;;;4.60;3.22;;;0.60;99.90;;;;;;4994049;28;20379;-83
2021/04/08 04:00:32;;;;;;;7.57;3.60;;;0.50;99.90;;;;;;5010309;28;20021;-83
2021/04/08 04:02:59;;;;;;;5.45;3.65;;;0.60;99.90;;;;;;5011682;28;20132;-85
2021/04/08 04:05:26;;;;;;;5.38;3.25;;;0.50;99.90;;;;;;5013512;28;20416;-83
2021/04/08 04:07:52;;;;;;;5.53;3.40;;;0.50;99.90;;;;;;5014151;28;20026;-83
2021/04/08 04:10:22;;;;;;;9.93;3.88;;;0.60;99.90;;;;;;5014145;28;20025;-83
2021/04/08 04:12:52;;;;;;;7.63;4.00;;;0.60;99.90;;;;;;5014507;28;20037;-84
2021/04/08 04:15:19;;;;;;;6.65;3.55;;;0.60;99.90;;;;;;5013526;28;20026;-84
2021/04/08 04:17:44;;;;;;;6.82;3.88;;;0.60;99.90;;;;;;4993365;28;20061;-84
2021/04/08 04:20:11;;;;;;;7.32;4.00;;;0.60;99.90;;;;;;5007996;28;20053;-84
2021/04/08 04:22:38;;;;;;;6.65;3.30;;;0.70;99.90;;;;;;5011327;28;20025;-84
2021/04/08 04:25:06;;;;;;;7.40;3.75;;;0.70;99.90;;;;;;5010870;28;20049;-83
2021/04/08 04:27:32;;;;;;;7.28;3.83;;;0.50;99.90;;;;;;5010843;28;20105;-83
2021/04/08 04:29:58;;;;;;;8.27;4.40;;;0.30;99.90;;;;;;5009851;28;20112;-84
2021/04/08 04:32:23;;;;;;;7.57;4.45;;;0.20;99.90;;;;;;4993195;28;20026;-83
2021/04/08 04:34:49;;;;;;;9.68;4.40;;;0.20;99.90;;;;;;5010611;28;20041;-82
2021/04/08 04:37:14;;;;;;;6.20;3.85;;;0.20;99.90;;;;;;4992160;28;20029;-83
2021/04/08 04:39:40;;;;;;;8.13;4.88;;;0.30;99.90;;;;;;5010603;28;20036;-84
2021/04/08 04:42:07;;;;;;;11.73;5.03;;;0.30;99.90;;;;;;5010865;28;20021;-83
2021/04/08 04:44:33;;;;;;;12.95;6.10;;;0.20;99.90;;;;;;5008818;28;20120;-84
2021/04/08 04:47:00;;;;;;;16.10;6.60;;;0.20;99.90;;;;;;5011257;28;20024;-85
2021/04/08 04:49:26;;;;;;;10.93;5.80;;;0.30;99.90;;;;;;5013061;28;20377;-84
2021/04/08 04:51:52;;;;;;;9.18;5.43;;;0.30;99.90;;;;;;4995450;28;20037;-84
2021/04/08 04:54:17;;;;;;;9.75;5.10;;;0.40;99.90;;;;;;5014748;28;20208;-83
2021/04/08 04:56:43;;;;;;;10.68;5.47;;;0.20;99.90;;;;;;4993784;28;20048;-84
2021/04/08 04:59:09;;;;;;;15.90;6.90;;;0.20;99.90;;;;;;4991406;28;20045;-84
2021/04/08 05:01:35;;;;;;;11.55;5.75;;;0.30;99.90;;;;;;5010592;28;20093;-84
2021/04/08 05:04:00;;;;;;;13.73;5.90;;;0.30;99.90;;;;;;5010001;28;20533;-84
2021/04/08 05:06:26;;;;;;;9.98;5.75;;;0.30;99.90;;;;;;5010666;28;20026;-83
2021/04/08 05:08:52;;;;;;;11.32;6.03;;;0.20;99.90;;;;;;5009337;28;20533;-84
2021/04/08 05:11:17;;;;;;;12.25;5.97;;;0.10;99.90;;;;;;5010941;28;20040;-84
2021/04/08 05:13:43;;;;;;;10.27;5.18;;;0.20;99.90;;;;;;4991287;28;20038;-84
2021/04/08 05:16:09;;;;;;;8.23;4.07;;;0.30;99.90;;;;;;5010332;28;20041;-84
2021/04/08 05:18:34;;;;;;;7.25;4.20;;;0.40;99.90;;;;;;4992805;28;20033;-83
2021/04/08 05:21:00;;;;;;;8.15;4.38;;;0.40;99.90;;;;;;4992910;28;20441;-84
2021/04/08 05:23:26;;;;;;;10.45;4.35;;;0.60;99.90;;;;;;5010278;28;20022;-84
2021/04/08 05:25:52;;;;;;;8.95;4.57;;;0.60;99.90;;;;;;5010409;28;20495;-84
2021/04/08 05:28:18;;;;;;;7.47;4.18;;;0.60;99.90;;;;;;4991381;28;20457;-84
2021/04/08 05:30:44;;;;;;;7.55;4.30;;;0.60;99.90;;;;;;5010329;28;20394;-84
2021/04/08 05:33:09;;;;;;;8.00;4.05;;;0.70;99.90;;;;;;5009828;28;20030;-84
2021/04/08 05:35:35;;;;;;;6.07;4.00;;;0.60;99.90;;;;;;4992613;28;20104;-84
2021/04/08 05:38:01;;;;;;;8.75;4.30;;;0.60;99.90;;;;;;5009754;28;20026;-84
2021/04/08 05:40:26;;;;;;;9.30;4.40;;;0.70;99.90;;;;;;5010142;28;20088;-84
2021/04/08 05:42:52;;;;;;;9.00;4.10;;;0.80;99.90;;;;;;5007633;28;20018;-83
2021/04/08 05:45:19;;;;;;;6.95;3.97;;;0.70;99.90;;;;;;5009503;28;20414;-84
2021/04/08 05:47:46;;;;;;;6.80;4.40;;;0.80;99.90;;;;;;5009867;28;20152;-84
2021/04/08 05:50:13;;;;;;;9.23;4.60;;;0.90;99.90;;;;;;5010024;28;20053;-83
2021/04/08 05:52:39;;;;;;;8.07;4.53;;;1.00;99.90;;;;;;5008944;28;20045;-84
2021/04/08 05:55:06;;;;;;;15.15;5.88;;;1.00;99.90;;;;;;5009801;28;20085;-83
2021/04/08 05:57:32;;;;;;;9.10;5.13;;;1.00;99.90;;;;;;5009197;28;20022;-84
2021/04/08 05:59:57;;;;;;;8.32;4.10;;;0.90;99.90;;;;;;5008675;28;20037;-84
2021/04/08 06:02:23;;;;;;;9.68;4.38;;;1.00;99.90;;;;;;5009400;28;20038;-84
2021/04/08 06:04:50;;;;;;;7.93;4.20;;;1.00;99.90;;;;;;5008357;28;20021;-83
2021/04/08 06:07:15;;;;;;;7.07;3.95;;;1.10;99.90;;;;;;4992386;28;20014;-84
2021/04/08 06:09:41;;;;;;;8.20;4.18;;;1.70;99.90;;;;;;4991479;28;20039;-84
2021/04/08 06:12:07;;;;;;;7.85;3.95;;;1.20;99.90;;;;;;5010031;28;20506;-84
2021/04/08 06:14:35;;;;;;;8.90;4.00;;;1.30;99.90;;;;;;5007798;28;20022;-84
2021/04/08 06:17:00;;;;;;;7.57;4.13;;;1.30;99.90;;;;;;4991804;28;20022;-83
2021/04/08 06:19:26;;;;;;;9.55;4.68;;;1.50;99.90;;;;;;5009770;28;20057;-83
2021/04/08 06:21:51;;;;;;;8.50;4.18;;;1.50;99.90;;;;;;4992224;28;20096;-83
2021/04/08 06:24:17;;;;;;;7.85;4.40;;;1.60;99.90;;;;;;5009561;28;20026;-84
2021/04/08 06:26:43;;;;;;;8.57;3.45;;;1.70;99.90;;;;;;5009822;28;20041;-84
2021/04/08 06:29:08;;;;;;;7.38;3.78;;;1.80;99.90;;;;;;5008495;28;20034;-84
2021/04/08 06:31:34;;;;;;;7.47;3.78;;;1.80;99.90;;;;;;5009351;28;20029;-84
2021/04/08 06:34:00;;;;;;;7.50;3.80;;;1.90;99.90;;;;;;4992235;28;20030;-84
2021/04/08 06:36:26;;;;;;;8.30;3.80;;;2.00;99.90;;;;;;5009705;28;20482;-83
2021/04/08 06:38:52;;;;;;;9.50;3.58;;;2.10;99.90;;;;;;5009530;28;20041;-83
2021/04/08 06:41:18;;;;;;;7.47;4.00;;;2.30;99.90;;;;;;4992080;28;20055;-84
2021/04/08 06:43:45;;;;;;;8.25;3.80;;;2.40;99.90;;;;;;5007975;28;20026;-84
2021/04/08 06:46:16;;;;;;;6.20;3.75;;;2.40;99.90;;;;;;4991586;28;20068;-84
2021/04/08 06:48:55;;;;;;;6.10;3.58;;;2.40;99.90;;;;;;4991958;28;20033;-84
2021/04/08 06:51:21;;;;;;;7.13;4.13;;;2.50;99.90;;;;;;4991716;28;20050;-84
2021/04/08 06:53:50;;;;;;;6.90;4.28;;;2.60;99.90;;;;;;5009463;28;20084;-84
2021/04/08 06:56:17;;;;;;;7.63;4.57;;;2.70;99.90;;;;;;4991726;28;20034;-84
2021/04/08 06:58:43;;;;;;;8.07;4.40;;;2.80;99.90;;;;;;4990197;28;20116;-84
2021/04/08 07:01:10;;;;;;;8.93;4.57;;;3.30;99.90;;;;;;5009522;28;20109;-84
2021/04/08 07:03:36;;;;;;;9.48;4.93;;;2.90;99.90;;;;;;5008758;28;20048;-83
2021/04/08 07:06:03;;;;;;;7.93;4.90;;;3.10;99.90;;;;;;5009421;28;20036;-84
2021/04/08 07:08:30;;;;;;;11.32;4.97;;;3.10;99.90;;;;;;5012579;28;20034;-84
2021/04/08 07:10:57;;;;;;;7.35;4.80;;;3.30;99.90;;;;;;4995241;28;20095;-83
2021/04/08 07:13:25;;;;;;;9.40;4.93;;;3.40;99.90;;;;;;4993212;28;20478;-84
2021/04/08 07:15:54;;;;;;;11.35;4.90;;;3.40;99.90;;;;;;5012484;28;20084;-83
2021/04/08 07:18:21;;;;;;;13.43;4.47;;;3.60;99.90;;;;;;5012582;28;20032;-84
2021/04/08 07:20:48;;;;;;;10.18;4.70;;;3.70;99.90;;;;;;4994880;28;20032;-84
2021/04/08 07:23:14;;;;;;;13.00;4.30;;;3.70;99.90;;;;;;4995178;28;20036;-84
2021/04/08 07:25:59;;;;;;;14.07;4.78;;;3.80;99.90;;;;;;5011028;28;20017;-84
2021/04/08 07:28:37;;;;;;;14.07;5.00;;;3.90;99.90;;;;;;5012337;28;20487;-84
2021/04/08 07:31:24;;;;;;;10.40;5.50;;;4.10;99.90;;;;;;5012289;28;20109;-84
2021/04/08 07:33:51;;;;;;;17.10;4.57;;;4.20;99.90;;;;;;4994634;28;20021;-84
2021/04/08 07:36:31;;;;;;;7.70;4.70;;;4.70;99.90;;;;;;5011910;28;20022;-84
2021/04/08 07:39:00;;;;;;;9.00;4.20;;;4.30;99.90;;;;;;5011954;28;20025;-84
2021/04/08 07:41:28;;;;;;;8.73;4.38;;;4.30;99.90;;;;;;4992241;28;20434;-84
2021/04/08 07:44:07;;;;;;;8.82;4.30;;;4.50;99.90;;;;;;5011853;28;20022;-84
2021/04/08 07:46:45;;;;;;;9.98;4.28;;;4.50;99.90;;;;;;5011720;28;20022;-84
2021/04/08 07:49:27;;;;;;;7.70;4.50;;;4.60;99.90;;;;;;5012004;28;20552;-84
2021/04/08 07:51:54;;;;;;;9.90;4.78;;;5.40;99.90;;;;;;4994479;28;20053;-84
2021/04/08 07:54:20;;;;;;;8.85;4.60;;;4.80;99.90;;;;;;5010497;28;20026;-83
2021/04/08 07:56:46;;;;;;;7.70;3.95;;;5.40;99.90;;;;;;4993457;28;20037;-83
2021/04/08 07:59:16;;;;;;;10.25;4.60;;;5.10;99.90;;;;;;5011561;28;20540;-82
2021/04/08 08:01:45;;;;;;;10.93;4.80;;;5.10;99.90;;;;;;5010915;28;20021;-82
2021/04/08 08:04:31;;;;;;;7.20;4.90;;;5.30;99.90;;;;;;5008813;28;20042;-85
2021/04/08 08:06:57;;;;;;;8.13;5.03;;;5.10;99.90;;;;;;5010230;28;20065;-83
2021/04/08 08:09:25;;;;;;;9.80;4.93;;;5.10;99.90;;;;;;5011230;28;20022;-83
2021/04/08 08:11:52;;;;;;;9.50;4.88;;;5.10;99.90;;;;;;4993531;28;20406;-83
2021/04/08 08:14:32;;;;;;;9.85;4.72;;;5.10;99.90;;;;;;4993715;28;20018;-82
2021/04/08 08:17:11;;;;;;;9.73;4.90;;;5.60;99.90;;;;;;5011562;28;20025;-83
2021/04/08 08:19:38;;;;;;;7.68;4.65;;;5.60;99.90;;;;;;4992195;28;20488;-83
2021/04/08 08:22:05;;;;;;;6.50;4.60;;;5.50;99.90;;;;;;5011631;28;20560;-83
2021/04/08 08:24:31;;;;;;;11.00;4.60;;;5.50;99.90;;;;;;4993967;28;20037;-83
2021/04/08 08:26:57;;;;;;;10.70;4.70;;;5.50;99.90;;;;;;5010612;28;20153;-83
2021/04/08 08:29:25;;;;;;;6.60;4.32;;;5.60;99.90;;;;;;5011403;28;20022;-84
2021/04/08 08:31:57;;;;;;;10.23;4.55;;;5.60;99.90;;;;;;5010873;28;20030;-83
2021/04/08 08:34:39;;;;;;;9.45;4.72;;;5.70;99.90;;;;;;5009311;28;20030;-83
2021/04/08 08:37:09;;;;;;;10.20;4.65;;;5.90;99.90;;;;;;5009499;28;20034;-83
2021/04/08 08:39:45;;;;;;;8.40;4.60;;;6.00;99.90;;;;;;5010698;28;20032;-83
2021/04/08 08:42:13;;;;;;;7.72;4.65;;;6.20;99.90;;;;;;5010912;28;20025;-83
2021/04/08 08:44:40;;;;;;;9.18;4.93;;;6.20;99.90;;;;;;5010960;28;20075;-83
2021/04/08 08:47:13;;;;;;;12.10;5.80;;;6.30;99.90;;;;;;5010991;28;20030;-83
2021/04/08 08:49:50;;;;;;;7.55;4.55;;;6.50;99.90;;;;;;4991876;28;20034;-83
2021/04/08 08:52:22;;;;;;;8.50;4.43;;;6.50;99.90;;;;;;5010787;28;20034;-83
2021/04/08 08:54:49;;;;;;;8.00;4.72;;;6.60;99.90;;;;;;5010196;28;20450;-83
2021/04/08 08:57:16;;;;;;;8.45;4.78;;;7.20;99.90;;;;;;5010200;28;20022;-83
2021/04/08 08:59:43;;;;;;;8.50;4.70;;;6.90;99.90;;;;;;4993190;28;20080;-83
2021/04/08 09:02:09;;;;;;;9.30;4.15;;;6.90;99.90;;;;;;5009577;28;20059;-83
2021/04/08 09:04:35;;;;;;;7.47;4.30;;;7.10;99.90;;;;;;4991831;28;20068;-83
2021/04/08 09:07:05;;;;;;;7.45;4.50;;;7.60;99.90;;;;;;5010671;28;20050;-83
2021/04/08 09:09:32;;;;;;;8.25;4.03;;;7.60;99.90;;;;;;5010168;28;20018;-83
2021/04/08 09:12:04;;;;;;;6.53;3.83;;;7.40;99.90;;;;;;5001372;28;20113;-83
2021/04/08 09:14:32;;;;;;;6.90;3.90;;;7.50;99.90;;;;;;5008848;28;20402;-84
2021/04/08 09:16:57;;;;;;;6.47;4.07;;;7.60;99.90;;;;;;5010404;28;20025;-83
2021/04/08 09:19:31;;;;;;;5.60;3.47;;;8.00;99.90;;;;;;5009840;28;20033;-83
2021/04/08 09:21:58;;;;;;;5.32;3.47;;;7.90;99.90;;;;;;5010221;28;20025;-83
2021/04/08 09:24:47;;;;;;;6.22;3.83;;;8.30;99.90;;;;;;5010303;28;20363;-83
2021/04/08 09:27:20;;;;;;;3.97;2.10;;;8.20;99.90;;;;;;4992853;28;20490;-83
2021/04/08 09:29:49;;;;;;;2.95;1.85;;;8.50;99.90;;;;;;5010009;28;20100;-83
2021/04/08 09:32:34;;;;;;;3.47;2.05;;;9.00;99.90;;;;;;4991174;28;20105;-84
2021/04/08 09:35:05;;;;;;;3.22;1.60;;;8.90;99.90;;;;;;5009835;28;20014;-83
2021/04/08 09:37:51;;;;;;;2.28;1.88;;;9.00;99.90;;;;;;5010178;28;20026;-83
2021/04/08 09:40:31;;;;;;;3.13;2.40;;;9.10;99.90;;;;;;4992452;28;20108;-83
2021/04/08 09:43:03;;;;;;;3.83;2.60;;;9.00;99.90;;;;;;5010063;28;20060;-83
2021/04/08 09:45:30;;;;;;;4.97;2.80;;;9.00;99.90;;;;;;5009713;28;20036;-84
2021/04/08 09:48:15;;;;;;;5.32;2.88;;;9.10;99.90;;;;;;5008599;28;20026;-83
2021/04/08 09:50:58;;;;;;;4.47;3.08;;;9.10;99.90;;;;;;5009752;28;20041;-83
2021/04/08 09:53:28;;;;;;;5.80;2.65;;;9.40;99.90;;;;;;5009008;28;20030;-83
2021/04/08 09:55:57;;;;;;;3.20;2.15;;;9.50;99.90;;;;;;4991944;28;20026;-83
2021/04/08 09:58:40;;;;;;;4.35;2.50;;;9.80;99.90;;;;;;5009206;28;20029;-83
2021/04/08 10:01:08;;;;;;;4.38;2.10;;;10.00;99.90;;;;;;5009591;28;20466;-83
2021/04/08 10:03:40;;;;;;;5.45;2.13;;;10.20;99.90;;;;;;5005907;28;20540;-84
2021/04/08 10:06:15;;;;;;;3.00;1.95;;;10.70;99.90;;;;;;5009505;28;20026;-83
2021/04/08 10:08:41;;;;;;;2.45;1.80;;;13.40;99.90;;;;;;5008759;28;20030;-84
2021/04/08 10:11:07;;;;;;;3.08;1.83;;;18.10;99.90;;;;;;5010637;28;20524;-84
2021/04/08 10:13:34;;;;;;;2.97;1.95;;;20.80;99.90;;;;;;5009861;28;20505;-84
2021/04/08 10:16:07;;;;;;;3.80;2.17;;;24.30;99.90;;;;;;5009372;28;20037;-84
2021/04/08 10:18:33;;;;;;;3.90;2.10;;;26.80;99.90;;;;;;5008223;28;20052;-84
2021/04/08 10:21:02;;;;;;;3.40;2.20;;;27.70;99.90;;;;;;5007744;28;20030;-85
2021/04/08 10:23:36;;;;;;;2.90;2.47;;;27.30;99.90;;;;;;5009017;28;20089;-84
2021/04/08 10:26:07;;;;;;;2.80;2.17;;;27.60;99.90;;;;;;5009792;28;20022;-85
2021/04/08 10:28:46;;;;;;;2.35;1.98;;;29.60;99.90;;;;;;4991667;28;20041;-85
2021/04/08 10:31:15;;;;;;;2.88;2.25;;;29.30;99.90;;;;;;5008925;28;20421;-85
2021/04/08 10:33:41;;;;;;;3.67;2.15;;;28.50;99.90;;;;;;5009064;28;20053;-85
2021/04/08 10:36:06;;;;;;;3.45;2.42;;;29.70;99.90;;;;;;5007575;28;20018;-84
2021/04/08 10:38:32;;;;;;;4.32;2.40;;;29.00;99.90;;;;;;5009246;28;20038;-85
2021/04/08 10:40:58;;;;;;;2.70;2.30;;;28.60;99.90;;;;;;5008112;28;20037;-85
2021/04/08 10:43:23;;;;;;;3.15;2.47;;;29.40;99.90;;;;;;5010516;28;20026;-86
2021/04/08 10:45:50;;;;;;;2.40;2.20;;;29.60;99.90;;;;;;4994050;28;20034;-83
2021/04/08 10:48:16;;;;;;;2.47;2.28;;;29.60;99.90;;;;;;5009222;28;20087;-83
2021/04/08 10:50:42;;;;;;;2.92;2.13;;;28.80;99.90;;;;;;5009250;28;20029;-83
2021/04/08 10:53:07;;;;;;;3.13;2.42;;;29.40;99.90;;;;;;5010995;28;20033;-83
2021/04/08 10:55:33;;;;;;;5.22;2.65;;;30.60;99.90;;;;;;5013271;28;20038;-83
2021/04/08 10:57:59;;;;;;;3.30;2.50;;;31.00;99.90;;;;;;5012601;28;20400;-84
2021/04/08 11:00:24;;;;;;;2.60;2.40;;;30.20;99.90;;;;;;5010711;28;20121;-85
2021/04/08 11:02:51;;;;;;;4.10;2.10;;;30.80;99.90;;;;;;4993974;28;20100;-85
2021/04/08 11:05:16;;;;;;;3.00;2.50;;;31.70;99.90;;;;;;5011933;28;20048;-85
2021/04/08 11:07:44;;;;;;;3.20;2.58;;;32.10;99.90;;;;;;4994416;28;20022;-85
2021/04/08 11:10:18;;;;;;;5.75;2.67;;;33.10;99.90;;;;;;5011657;28;20061;-84
2021/04/08 11:12:47;;;;;;;4.35;2.72;;;32.60;99.90;;;;;;5012133;28;20046;-84
2021/04/08 11:15:13;;;;;;;5.72;2.80;;;32.40;99.90;;;;;;5012561;28;20032;-84
2021/04/08 11:17:43;;;;;;;3.78;2.42;;;32.40;99.90;;;;;;4994658;28;20014;-86
2021/04/08 11:20:11;;;;;;;3.83;2.20;;;33.40;99.90;;;;;;5011834;28;20018;-85
2021/04/08 11:22:43;;;;;;;2.60;2.38;;;33.80;99.90;;;;;;4993226;28;20028;-84
2021/04/08 11:25:14;;;;;;;3.25;2.53;;;32.50;99.90;;;;;;4994536;28;20029;-83
2021/04/08 11:27:43;;;;;;;2.72;2.42;;;32.20;99.90;;;;;;5012071;28;20131;-83
2021/04/08 11:30:18;;;;;;;3.05;2.28;;;32.80;99.90;;;;;;5011987;28;20018;-82
2021/04/08 11:32:46;;;;;;;2.85;2.30;;;33.20;99.90;;;;;;5012032;28;20486;-83
2021/04/08 11:35:22;;;;;;;2.40;2.20;;;32.90;99.90;;;;;;5011571;28;20026;-83
2021/04/08 11:37:47;;;;;;;2.53;2.33;;;33.00;99.90;;;;;;5010772;28;20618;-83
2021/04/08 11:40:13;;;;;;;2.60;2.40;;;33.60;99.90;;;;;;5012228;28;20018;-83
2021/04/08 11:42:40;;;;;;;3.28;2.40;;;34.00;99.90;;;;;;5011968;28;20049;-84
2021/04/08 11:45:27;;;;;;;2.55;2.30;;;34.10;99.90;;;;;;5011894;28;20429;-85
2021/04/08 11:48:04;;;;;;;4.95;2.13;;;33.30;99.90;;;;;;5011907;28;20044;-85
2021/04/08 11:50:45;;;;;;;4.90;2.13;;;33.30;99.90;;;;;;5011832;28;20026;-85
2021/04/08 11:53:16;;;;;;;3.75;2.38;;;34.20;99.90;;;;;;5008680;28;20026;-85
2021/04/08 11:55:51;;;;;;;6.00;2.40;;;33.50;99.90;;;;;;5012093;28;20026;-85
2021/04/08 11:58:29;;;;;;;3.13;2.10;;;33.30;99.90;;;;;;4994012;28;20026;-86
2021/04/08 12:01:16;;;;;;;2.65;2.05;;;33.00;99.90;;;;;;5011427;28;20097;-85
2021/04/08 12:03:44;;;;;;;3.47;2.22;;;34.90;99.90;;;;;;5011402;28;20041;-85
2021/04/08 12:06:10;;;;;;;3.58;2.15;;;34.10;99.90;;;;;;4994191;28;20026;-85
2021/04/08 12:08:46;;;;;;;3.03;2.10;;;33.30;99.90;;;;;;5010756;28;20030;-85
2021/04/08 12:11:14;;;;;;;3.00;1.70;;;33.90;99.90;;;;;;5011505;28;20022;-85
2021/04/08 12:13:42;;;;;;;6.63;2.17;;;34.30;99.90;;;;;;5011169;28;20049;-85
2021/04/08 12:16:21;;;;;;;2.67;2.20;;;35.00;99.90;;;;;;4994118;28;20030;-85
2021/04/08 12:18:47;;;;;;;3.10;1.90;;;34.90;99.90;;;;;;5009303;28;20113;-85
2021/04/08 12:21:12;;;;;;;4.82;2.03;;;34.70;99.90;;;;;;5011757;28;20120;-85
2021/04/08 12:23:39;;;;;;;3.40;2.20;;;34.90;99.90;;;;;;5011248;28;20028;-85
2021/04/08 12:26:05;;;;;;;3.08;2.00;;;33.70;99.90;;;;;;4993940;28;20026;-85
2021/04/08 12:28:31;;;;;;;2.92;1.70;;;32.00;99.90;;;;;;5011413;28;20449;-85
2021/04/08 12:30:59;;;;;;;1.88;1.70;;;32.20;99.90;;;;;;5010091;28;20038;-85
2021/04/08 12:33:32;;;;;;;4.15;1.88;;;33.00;99.90;;;;;;5008921;28;20111;-85
2021/04/08 12:36:00;;;;;;;2.20;2.00;;;33.50;99.90;;;;;;5011400;28;20029;-85
2021/04/08 12:38:25;;;;;;;1.90;1.70;;;33.80;99.90;;;;;;5011085;28;20117;-85
2021/04/08 12:40:52;;;;;;;2.50;1.77;;;34.40;99.90;;;;;;5009017;28;20112;-85
2021/04/08 12:43:18;;;;;;;2.03;1.58;;;34.90;99.90;;;;;;5011263;28;20108;-85
2021/04/08 12:45:44;;;;;;;3.05;1.95;;;33.50;99.90;;;;;;4993583;28;20121;-86
2021/04/08 12:48:10;;;;;;;3.33;1.77;;;33.80;99.90;;;;;;5010665;28;20025;-85
2021/04/08 12:50:38;;;;;;;2.38;1.90;;;34.00;99.90;;;;;;5011085;28;20028;-85
2021/04/08 12:53:04;;;;;;;2.67;1.70;;;34.40;99.90;;;;;;4993613;28;20053;-85
2021/04/08 12:55:30;;;;;;;2.00;1.80;;;34.40;99.90;;;;;;5009953;28;20061;-85
2021/04/08 12:57:56;;;;;;;2.13;1.80;;;34.20;99.90;;;;;;5010696;28;20026;-86
2021/04/08 13:00:23;;;;;;;2.40;1.92;;;34.50;99.90;;;;;;5011049;28;20037;-85
2021/04/08 13:02:50;;;;;;;1.95;1.70;;;33.70;99.90;;;;;;5010227;28;20034;-85